sensor_id;sensor_type;location;lat;lon;timestamp;P1;durP1;ratioP1;P2;durP2;ratioP2
18443;SDS011;9350;53.176;8.194;2023-08-20T00:00:22;7.07;;;4.25;;
18443;SDS011;9350;53.176;8.194;2023-08-20T00:02:50;6.82;;;4.10;;
18443;SDS011;9350;53.176;8.194;2023-08-20T00:05:24;6.22;;;4.20;;
18443;SDS011;9350;53.176;8.194;2023-08-20T00:07:51;5.95;;;3.85;;
18443;SDS011;9350;53.176;8.194;2023-08-20T00:10:19;7.00;;;4.10;;
18443;SDS011;9350;53.176;8.194;2023-08-20T00:12:46;7.03;;;4.20;;
18443;SDS011;9350;53.176;8.194;2023-08-20T00:15:12;8.77;;;5.10;;
18443;SDS011;9350;53.176;8.194;2023-08-20T00:17:40;7.32;;;4.57;;
18443;SDS011;9350;53.176;8.194;2023-08-20T00:20:08;5.88;;;4.03;;
18443;SDS011;9350;53.176;8.194;2023-08-20T00:22:37;6.28;;;4.32;;
18443;SDS011;9350;53.176;8.194;2023-08-20T00:25:07;8.90;;;4.35;;
18443;SDS011;9350;53.176;8.194;2023-08-20T00:27:36;7.28;;;4.50;;
18443;SDS011;9350;53.176;8.194;2023-08-20T00:30:03;9.00;;;4.47;;
18443;SDS011;9350;53.176;8.194;2023-08-20T00:32:30;6.13;;;4.75;;
18443;SDS011;9350;53.176;8.194;2023-08-20T00:34:57;5.88;;;4.75;;
18443;SDS011;9350;53.176;8.194;2023-08-20T00:37:24;7.35;;;4.60;;
18443;SDS011;9350;53.176;8.194;2023-08-20T00:39:51;7.88;;;4.35;;
18443;SDS011;9350;53.176;8.194;2023-08-20T00:42:18;5.97;;;4.95;;
18443;SDS011;9350;53.176;8.194;2023-08-20T00:44:46;5.28;;;4.47;;
18443;SDS011;9350;53.176;8.194;2023-08-20T00:47:13;8.95;;;4.95;;
18443;SDS011;9350;53.176;8.194;2023-08-20T00:49:40;8.07;;;5.13;;
18443;SDS011;9350;53.176;8.194;2023-08-20T00:52:07;6.78;;;5.18;;
18443;SDS011;9350;53.176;8.194;2023-08-20T00:54:35;8.40;;;4.93;;
18443;SDS011;9350;53.176;8.194;2023-08-20T00:57:02;9.52;;;5.10;;
18443;SDS011;9350;53.176;8.194;2023-08-20T00:59:30;7.00;;;5.38;;
18443;SDS011;9350;53.176;8.194;2023-08-20T01:01:59;7.68;;;4.82;;
18443;SDS011;9350;53.176;8.194;2023-08-20T01:04:26;15.57;;;6.47;;
18443;SDS011;9350;53.176;8.194;2023-08-20T01:06:55;6.45;;;4.95;;
18443;SDS011;9350;53.176;8.194;2023-08-20T01:09:32;6.40;;;4.97;;
18443;SDS011;9350;53.176;8.194;2023-08-20T01:12:09;7.40;;;4.93;;
18443;SDS011;9350;53.176;8.194;2023-08-20T01:14:37;11.43;;;5.03;;
18443;SDS011;9350;53.176;8.194;2023-08-20T01:17:05;6.15;;;4.82;;
18443;SDS011;9350;53.176;8.194;2023-08-20T01:19:32;8.75;;;4.68;;
18443;SDS011;9350;53.176;8.194;2023-08-20T01:22:04;8.65;;;4.85;;
18443;SDS011;9350;53.176;8.194;2023-08-20T01:24:45;7.57;;;4.85;;
18443;SDS011;9350;53.176;8.194;2023-08-20T01:27:26;7.53;;;4.88;;
18443;SDS011;9350;53.176;8.194;2023-08-20T01:30:04;8.45;;;4.50;;
18443;SDS011;9350;53.176;8.194;2023-08-20T01:32:32;6.97;;;4.82;;
18443;SDS011;9350;53.176;8.194;2023-08-20T01:34:59;8.73;;;5.22;;
18443;SDS011;9350;53.176;8.194;2023-08-20T01:37:26;10.48;;;5.03;;
18443;SDS011;9350;53.176;8.194;2023-08-20T01:39:53;9.00;;;5.82;;
18443;SDS011;9350;53.176;8.194;2023-08-20T01:42:20;7.07;;;4.68;;
18443;SDS011;9350;53.176;8.194;2023-08-20T01:44:46;7.28;;;4.78;;
18443;SDS011;9350;53.176;8.194;2023-08-20T01:47:14;4.72;;;4.22;;
18443;SDS011;9350;53.176;8.194;2023-08-20T01:49:41;7.03;;;4.63;;
18443;SDS011;9350;53.176;8.194;2023-08-20T01:52:08;6.18;;;4.45;;
18443;SDS011;9350;53.176;8.194;2023-08-20T01:54:34;6.95;;;4.40;;
18443;SDS011;9350;53.176;8.194;2023-08-20T01:57:01;9.30;;;4.65;;
18443;SDS011;9350;53.176;8.194;2023-08-20T01:59:28;10.00;;;3.95;;
18443;SDS011;9350;53.176;8.194;2023-08-20T02:01:55;8.07;;;4.47;;
18443;SDS011;9350;53.176;8.194;2023-08-20T02:04:23;5.63;;;4.13;;
18443;SDS011;9350;53.176;8.194;2023-08-20T02:06:49;5.05;;;4.28;;
18443;SDS011;9350;53.176;8.194;2023-08-20T02:09:16;6.55;;;4.40;;
18443;SDS011;9350;53.176;8.194;2023-08-20T02:11:44;9.88;;;4.25;;
18443;SDS011;9350;53.176;8.194;2023-08-20T02:14:11;5.22;;;4.20;;
18443;SDS011;9350;53.176;8.194;2023-08-20T02:16:38;8.43;;;4.43;;
18443;SDS011;9350;53.176;8.194;2023-08-20T02:19:04;7.50;;;4.43;;
18443;SDS011;9350;53.176;8.194;2023-08-20T02:21:33;7.07;;;4.22;;
18443;SDS011;9350;53.176;8.194;2023-08-20T02:23:59;9.68;;;3.92;;
18443;SDS011;9350;53.176;8.194;2023-08-20T02:26:26;8.43;;;4.72;;
18443;SDS011;9350;53.176;8.194;2023-08-20T02:28:53;7.05;;;4.78;;
18443;SDS011;9350;53.176;8.194;2023-08-20T02:31:19;4.90;;;4.40;;
18443;SDS011;9350;53.176;8.194;2023-08-20T02:33:46;6.18;;;4.60;;
18443;SDS011;9350;53.176;8.194;2023-08-20T02:36:13;7.25;;;4.70;;
18443;SDS011;9350;53.176;8.194;2023-08-20T02:38:41;6.57;;;4.03;;
18443;SDS011;9350;53.176;8.194;2023-08-20T02:41:08;5.90;;;4.43;;
18443;SDS011;9350;53.176;8.194;2023-08-20T02:43:34;6.47;;;4.00;;
18443;SDS011;9350;53.176;8.194;2023-08-20T02:46:01;8.07;;;4.45;;
18443;SDS011;9350;53.176;8.194;2023-08-20T02:48:28;7.35;;;3.80;;
18443;SDS011;9350;53.176;8.194;2023-08-20T02:50:55;6.70;;;4.07;;
18443;SDS011;9350;53.176;8.194;2023-08-20T02:53:22;9.15;;;3.70;;
18443;SDS011;9350;53.176;8.194;2023-08-20T02:55:50;6.97;;;3.90;;
18443;SDS011;9350;53.176;8.194;2023-08-20T02:58:17;5.07;;;3.80;;
18443;SDS011;9350;53.176;8.194;2023-08-20T03:00:43;6.13;;;3.70;;
18443;SDS011;9350;53.176;8.194;2023-08-20T03:03:11;5.85;;;4.22;;
18443;SDS011;9350;53.176;8.194;2023-08-20T03:05:38;4.85;;;3.55;;
18443;SDS011;9350;53.176;8.194;2023-08-20T03:08:05;6.38;;;3.75;;
18443;SDS011;9350;53.176;8.194;2023-08-20T03:10:33;6.22;;;3.90;;
18443;SDS011;9350;53.176;8.194;2023-08-20T03:13:02;4.72;;;3.63;;
18443;SDS011;9350;53.176;8.194;2023-08-20T03:15:29;4.25;;;3.47;;
18443;SDS011;9350;53.176;8.194;2023-08-20T03:17:56;6.53;;;3.90;;
18443;SDS011;9350;53.176;8.194;2023-08-20T03:20:22;6.28;;;3.90;;
18443;SDS011;9350;53.176;8.194;2023-08-20T03:22:49;4.50;;;3.22;;
18443;SDS011;9350;53.176;8.194;2023-08-20T03:25:16;7.72;;;3.78;;
18443;SDS011;9350;53.176;8.194;2023-08-20T03:27:42;3.78;;;3.33;;
18443;SDS011;9350;53.176;8.194;2023-08-20T03:30:11;6.95;;;3.70;;
18443;SDS011;9350;53.176;8.194;2023-08-20T03:32:38;7.93;;;3.63;;
18443;SDS011;9350;53.176;8.194;2023-08-20T03:35:05;10.35;;;4.20;;
18443;SDS011;9350;53.176;8.194;2023-08-20T03:37:32;4.72;;;3.80;;
18443;SDS011;9350;53.176;8.194;2023-08-20T03:39:58;5.75;;;4.32;;
18443;SDS011;9350;53.176;8.194;2023-08-20T03:42:25;7.07;;;3.70;;
18443;SDS011;9350;53.176;8.194;2023-08-20T03:44:52;7.65;;;4.07;;
18443;SDS011;9350;53.176;8.194;2023-08-20T03:47:20;7.03;;;4.60;;
18443;SDS011;9350;53.176;8.194;2023-08-20T03:49:46;9.45;;;4.60;;
18443;SDS011;9350;53.176;8.194;2023-08-20T03:52:14;6.28;;;4.25;;
18443;SDS011;9350;53.176;8.194;2023-08-20T03:54:40;10.65;;;4.70;;
18443;SDS011;9350;53.176;8.194;2023-08-20T03:57:07;8.52;;;4.47;;
18443;SDS011;9350;53.176;8.194;2023-08-20T03:59:34;7.22;;;4.85;;
18443;SDS011;9350;53.176;8.194;2023-08-20T04:02:01;8.25;;;5.18;;
18443;SDS011;9350;53.176;8.194;2023-08-20T04:04:29;10.65;;;5.15;;
18443;SDS011;9350;53.176;8.194;2023-08-20T04:06:56;8.82;;;5.78;;
18443;SDS011;9350;53.176;8.194;2023-08-20T04:09:23;9.65;;;5.90;;
18443;SDS011;9350;53.176;8.194;2023-08-20T04:11:50;11.18;;;5.40;;
18443;SDS011;9350;53.176;8.194;2023-08-20T04:14:16;7.38;;;5.70;;
18443;SDS011;9350;53.176;8.194;2023-08-20T04:16:43;9.13;;;6.00;;
18443;SDS011;9350;53.176;8.194;2023-08-20T04:19:10;7.47;;;5.72;;
18443;SDS011;9350;53.176;8.194;2023-08-20T04:21:38;7.70;;;5.60;;
18443;SDS011;9350;53.176;8.194;2023-08-20T04:24:05;10.98;;;6.13;;
18443;SDS011;9350;53.176;8.194;2023-08-20T04:26:32;7.30;;;5.70;;
18443;SDS011;9350;53.176;8.194;2023-08-20T04:28:59;9.55;;;5.63;;
18443;SDS011;9350;53.176;8.194;2023-08-20T04:31:26;11.05;;;5.65;;
18443;SDS011;9350;53.176;8.194;2023-08-20T04:33:52;10.75;;;5.70;;
18443;SDS011;9350;53.176;8.194;2023-08-20T04:36:19;10.13;;;5.97;;
18443;SDS011;9350;53.176;8.194;2023-08-20T04:38:47;9.50;;;6.07;;
18443;SDS011;9350;53.176;8.194;2023-08-20T04:41:14;10.90;;;5.35;;
18443;SDS011;9350;53.176;8.194;2023-08-20T04:43:40;7.50;;;5.65;;
18443;SDS011;9350;53.176;8.194;2023-08-20T04:46:07;6.60;;;5.18;;
18443;SDS011;9350;53.176;8.194;2023-08-20T04:48:34;12.00;;;6.10;;
18443;SDS011;9350;53.176;8.194;2023-08-20T04:51:04;8.82;;;5.80;;
18443;SDS011;9350;53.176;8.194;2023-08-20T04:53:31;9.32;;;5.55;;
18443;SDS011;9350;53.176;8.194;2023-08-20T04:55:59;6.65;;;5.38;;
18443;SDS011;9350;53.176;8.194;2023-08-20T04:58:26;7.10;;;5.75;;
18443;SDS011;9350;53.176;8.194;2023-08-20T05:00:53;9.02;;;6.25;;
18443;SDS011;9350;53.176;8.194;2023-08-20T05:03:19;8.32;;;5.72;;
18443;SDS011;9350;53.176;8.194;2023-08-20T05:05:48;9.27;;;6.18;;
18443;SDS011;9350;53.176;8.194;2023-08-20T05:08:15;8.77;;;5.93;;
18443;SDS011;9350;53.176;8.194;2023-08-20T05:10:42;12.25;;;6.78;;
18443;SDS011;9350;53.176;8.194;2023-08-20T05:13:10;12.32;;;6.35;;
18443;SDS011;9350;53.176;8.194;2023-08-20T05:15:36;10.68;;;6.18;;
18443;SDS011;9350;53.176;8.194;2023-08-20T05:18:03;7.97;;;6.43;;
18443;SDS011;9350;53.176;8.194;2023-08-20T05:20:30;10.38;;;6.20;;
18443;SDS011;9350;53.176;8.194;2023-08-20T05:22:57;13.18;;;6.10;;
18443;SDS011;9350;53.176;8.194;2023-08-20T05:25:23;9.90;;;6.38;;
18443;SDS011;9350;53.176;8.194;2023-08-20T05:27:50;10.75;;;7.10;;
18443;SDS011;9350;53.176;8.194;2023-08-20T05:30:18;11.55;;;7.28;;
18443;SDS011;9350;53.176;8.194;2023-08-20T05:32:45;11.77;;;6.75;;
18443;SDS011;9350;53.176;8.194;2023-08-20T05:35:12;16.95;;;8.18;;
18443;SDS011;9350;53.176;8.194;2023-08-20T05:37:38;13.82;;;7.68;;
18443;SDS011;9350;53.176;8.194;2023-08-20T05:40:05;15.45;;;8.68;;
18443;SDS011;9350;53.176;8.194;2023-08-20T05:42:34;14.02;;;8.35;;
18443;SDS011;9350;53.176;8.194;2023-08-20T05:45:00;11.35;;;8.57;;
18443;SDS011;9350;53.176;8.194;2023-08-20T05:47:28;15.57;;;8.52;;
18443;SDS011;9350;53.176;8.194;2023-08-20T05:49:55;14.73;;;8.70;;
18443;SDS011;9350;53.176;8.194;2023-08-20T05:52:22;12.30;;;7.78;;
18443;SDS011;9350;53.176;8.194;2023-08-20T05:54:48;12.25;;;8.70;;
18443;SDS011;9350;53.176;8.194;2023-08-20T05:57:15;15.55;;;9.02;;
18443;SDS011;9350;53.176;8.194;2023-08-20T05:59:42;18.05;;;8.85;;
18443;SDS011;9350;53.176;8.194;2023-08-20T06:02:09;20.20;;;8.48;;
18443;SDS011;9350;53.176;8.194;2023-08-20T06:04:37;20.15;;;8.57;;
18443;SDS011;9350;53.176;8.194;2023-08-20T06:07:03;15.73;;;8.88;;
18443;SDS011;9350;53.176;8.194;2023-08-20T06:09:30;13.10;;;8.07;;
18443;SDS011;9350;53.176;8.194;2023-08-20T06:11:57;15.98;;;8.70;;
18443;SDS011;9350;53.176;8.194;2023-08-20T06:14:23;16.00;;;8.48;;
18443;SDS011;9350;53.176;8.194;2023-08-20T06:16:50;14.40;;;8.93;;
18443;SDS011;9350;53.176;8.194;2023-08-20T06:19:17;14.68;;;8.38;;
18443;SDS011;9350;53.176;8.194;2023-08-20T06:21:45;11.77;;;8.55;;
18443;SDS011;9350;53.176;8.194;2023-08-20T06:24:11;14.45;;;7.95;;
18443;SDS011;9350;53.176;8.194;2023-08-20T06:26:38;11.30;;;7.88;;
18443;SDS011;9350;53.176;8.194;2023-08-20T06:29:05;15.45;;;8.82;;
18443;SDS011;9350;53.176;8.194;2023-08-20T06:31:31;15.77;;;8.73;;
18443;SDS011;9350;53.176;8.194;2023-08-20T06:33:58;19.70;;;8.52;;
18443;SDS011;9350;53.176;8.194;2023-08-20T06:36:25;15.52;;;8.60;;
18443;SDS011;9350;53.176;8.194;2023-08-20T06:38:53;18.45;;;8.75;;
18443;SDS011;9350;53.176;8.194;2023-08-20T06:41:19;16.33;;;8.75;;
18443;SDS011;9350;53.176;8.194;2023-08-20T06:43:46;13.52;;;7.72;;
18443;SDS011;9350;53.176;8.194;2023-08-20T06:46:13;16.83;;;8.77;;
18443;SDS011;9350;53.176;8.194;2023-08-20T06:48:40;19.10;;;8.48;;
18443;SDS011;9350;53.176;8.194;2023-08-20T06:51:12;16.33;;;8.93;;
18443;SDS011;9350;53.176;8.194;2023-08-20T06:53:40;14.60;;;8.05;;
18443;SDS011;9350;53.176;8.194;2023-08-20T06:56:08;16.05;;;7.88;;
18443;SDS011;9350;53.176;8.194;2023-08-20T06:58:36;19.27;;;8.00;;
18443;SDS011;9350;53.176;8.194;2023-08-20T07:01:03;13.50;;;7.72;;
18443;SDS011;9350;53.176;8.194;2023-08-20T07:03:33;17.38;;;7.65;;
18443;SDS011;9350;53.176;8.194;2023-08-20T07:06:00;14.60;;;7.53;;
18443;SDS011;9350;53.176;8.194;2023-08-20T07:08:26;18.02;;;7.25;;
18443;SDS011;9350;53.176;8.194;2023-08-20T07:10:53;14.98;;;7.45;;
18443;SDS011;9350;53.176;8.194;2023-08-20T07:13:21;14.32;;;7.45;;
18443;SDS011;9350;53.176;8.194;2023-08-20T07:15:48;20.60;;;7.45;;
18443;SDS011;9350;53.176;8.194;2023-08-20T07:18:15;13.50;;;7.00;;
18443;SDS011;9350;53.176;8.194;2023-08-20T07:20:42;12.65;;;6.70;;
18443;SDS011;9350;53.176;8.194;2023-08-20T07:23:09;18.67;;;6.95;;
18443;SDS011;9350;53.176;8.194;2023-08-20T07:25:36;11.05;;;5.40;;
18443;SDS011;9350;53.176;8.194;2023-08-20T07:28:04;13.95;;;6.80;;
18443;SDS011;9350;53.176;8.194;2023-08-20T07:30:32;16.70;;;6.28;;
18443;SDS011;9350;53.176;8.194;2023-08-20T07:32:59;8.90;;;5.53;;
18443;SDS011;9350;53.176;8.194;2023-08-20T07:35:27;10.75;;;5.63;;
18443;SDS011;9350;53.176;8.194;2023-08-20T07:37:53;12.18;;;5.53;;
18443;SDS011;9350;53.176;8.194;2023-08-20T07:40:20;9.95;;;4.82;;
18443;SDS011;9350;53.176;8.194;2023-08-20T07:42:47;20.08;;;5.35;;
18443;SDS011;9350;53.176;8.194;2023-08-20T07:45:13;13.40;;;5.07;;
18443;SDS011;9350;53.176;8.194;2023-08-20T07:47:41;11.27;;;4.60;;
18443;SDS011;9350;53.176;8.194;2023-08-20T07:50:08;12.85;;;4.88;;
18443;SDS011;9350;53.176;8.194;2023-08-20T07:52:35;13.27;;;4.82;;
18443;SDS011;9350;53.176;8.194;2023-08-20T07:55:01;13.32;;;4.72;;
18443;SDS011;9350;53.176;8.194;2023-08-20T07:57:29;9.43;;;3.65;;
18443;SDS011;9350;53.176;8.194;2023-08-20T07:59:55;11.55;;;3.83;;
18443;SDS011;9350;53.176;8.194;2023-08-20T08:02:22;13.95;;;4.20;;
18443;SDS011;9350;53.176;8.194;2023-08-20T08:04:50;14.88;;;3.90;;
18443;SDS011;9350;53.176;8.194;2023-08-20T08:07:17;9.63;;;3.72;;
18443;SDS011;9350;53.176;8.194;2023-08-20T08:09:43;13.43;;;4.30;;
18443;SDS011;9350;53.176;8.194;2023-08-20T08:12:10;14.32;;;4.60;;
18443;SDS011;9350;53.176;8.194;2023-08-20T08:14:37;17.63;;;4.45;;
18443;SDS011;9350;53.176;8.194;2023-08-20T08:17:04;11.60;;;4.50;;
18443;SDS011;9350;53.176;8.194;2023-08-20T08:19:31;9.82;;;4.07;;
18443;SDS011;9350;53.176;8.194;2023-08-20T08:21:59;10.93;;;4.38;;
18443;SDS011;9350;53.176;8.194;2023-08-20T08:24:25;10.82;;;4.10;;
18443;SDS011;9350;53.176;8.194;2023-08-20T08:26:52;11.65;;;3.88;;
18443;SDS011;9350;53.176;8.194;2023-08-20T08:29:19;15.30;;;3.63;;
18443;SDS011;9350;53.176;8.194;2023-08-20T08:31:45;8.82;;;3.10;;
18443;SDS011;9350;53.176;8.194;2023-08-20T08:34:12;6.85;;;2.90;;
18443;SDS011;9350;53.176;8.194;2023-08-20T08:36:39;6.57;;;3.20;;
18443;SDS011;9350;53.176;8.194;2023-08-20T08:39:07;10.30;;;3.70;;
18443;SDS011;9350;53.176;8.194;2023-08-20T08:41:34;9.10;;;3.90;;
18443;SDS011;9350;53.176;8.194;2023-08-20T08:44:05;12.32;;;3.72;;
18443;SDS011;9350;53.176;8.194;2023-08-20T08:46:34;8.05;;;3.53;;
18443;SDS011;9350;53.176;8.194;2023-08-20T08:49:01;9.82;;;3.25;;
18443;SDS011;9350;53.176;8.194;2023-08-20T08:51:29;9.38;;;3.20;;
18443;SDS011;9350;53.176;8.194;2023-08-20T08:53:57;12.77;;;3.05;;
18443;SDS011;9350;53.176;8.194;2023-08-20T08:56:27;8.60;;;3.17;;
18443;SDS011;9350;53.176;8.194;2023-08-20T08:58:53;8.27;;;2.88;;
18443;SDS011;9350;53.176;8.194;2023-08-20T09:01:20;13.82;;;3.42;;
18443;SDS011;9350;53.176;8.194;2023-08-20T09:03:47;5.80;;;2.47;;
18443;SDS011;9350;53.176;8.194;2023-08-20T09:06:14;10.68;;;3.08;;
18443;SDS011;9350;53.176;8.194;2023-08-20T09:08:41;8.25;;;2.97;;
18443;SDS011;9350;53.176;8.194;2023-08-20T09:11:07;8.88;;;2.80;;
18443;SDS011;9350;53.176;8.194;2023-08-20T09:13:36;9.43;;;2.85;;
18443;SDS011;9350;53.176;8.194;2023-08-20T09:16:04;6.88;;;2.60;;
18443;SDS011;9350;53.176;8.194;2023-08-20T09:18:32;12.75;;;3.10;;
18443;SDS011;9350;53.176;8.194;2023-08-20T09:20:59;11.52;;;2.78;;
18443;SDS011;9350;53.176;8.194;2023-08-20T09:23:28;8.30;;;2.42;;
18443;SDS011;9350;53.176;8.194;2023-08-20T09:25:55;9.57;;;3.05;;
18443;SDS011;9350;53.176;8.194;2023-08-20T09:28:22;10.05;;;3.05;;
18443;SDS011;9350;53.176;8.194;2023-08-20T09:30:59;11.93;;;2.90;;
18443;SDS011;9350;53.176;8.194;2023-08-20T09:33:27;12.90;;;3.00;;
18443;SDS011;9350;53.176;8.194;2023-08-20T09:35:54;9.68;;;2.78;;
18443;SDS011;9350;53.176;8.194;2023-08-20T09:38:21;9.80;;;2.88;;
18443;SDS011;9350;53.176;8.194;2023-08-20T09:40:50;8.98;;;2.75;;
18443;SDS011;9350;53.176;8.194;2023-08-20T09:43:18;10.15;;;2.45;;
18443;SDS011;9350;53.176;8.194;2023-08-20T09:45:45;10.63;;;2.75;;
18443;SDS011;9350;53.176;8.194;2023-08-20T09:48:14;7.82;;;2.70;;
18443;SDS011;9350;53.176;8.194;2023-08-20T09:50:46;7.53;;;2.35;;
18443;SDS011;9350;53.176;8.194;2023-08-20T09:53:17;7.95;;;2.20;;
18443;SDS011;9350;53.176;8.194;2023-08-20T09:55:48;4.68;;;2.30;;
18443;SDS011;9350;53.176;8.194;2023-08-20T09:58:17;8.35;;;2.47;;
18443;SDS011;9350;53.176;8.194;2023-08-20T10:00:46;10.43;;;2.90;;
18443;SDS011;9350;53.176;8.194;2023-08-20T10:03:16;7.13;;;2.60;;
18443;SDS011;9350;53.176;8.194;2023-08-20T10:05:44;9.55;;;2.38;;
18443;SDS011;9350;53.176;8.194;2023-08-20T10:08:12;9.00;;;2.72;;
18443;SDS011;9350;53.176;8.194;2023-08-20T10:10:40;7.88;;;2.85;;
18443;SDS011;9350;53.176;8.194;2023-08-20T10:13:07;8.02;;;2.60;;
18443;SDS011;9350;53.176;8.194;2023-08-20T10:15:34;6.40;;;2.83;;
18443;SDS011;9350;53.176;8.194;2023-08-20T10:18:03;5.20;;;2.38;;
18443;SDS011;9350;53.176;8.194;2023-08-20T10:20:31;11.60;;;3.67;;
18443;SDS011;9350;53.176;8.194;2023-08-20T10:23:00;5.95;;;2.58;;
18443;SDS011;9350;53.176;8.194;2023-08-20T10:25:29;10.25;;;3.30;;
18443;SDS011;9350;53.176;8.194;2023-08-20T10:28:10;8.95;;;3.03;;
18443;SDS011;9350;53.176;8.194;2023-08-20T10:30:39;10.27;;;3.03;;
18443;SDS011;9350;53.176;8.194;2023-08-20T10:33:33;7.75;;;2.70;;
18443;SDS011;9350;53.176;8.194;2023-08-20T10:36:08;7.45;;;2.70;;
18443;SDS011;9350;53.176;8.194;2023-08-20T10:38:36;7.53;;;3.08;;
18443;SDS011;9350;53.176;8.194;2023-08-20T10:41:05;9.93;;;3.05;;
18443;SDS011;9350;53.176;8.194;2023-08-20T10:43:33;7.85;;;3.05;;
18443;SDS011;9350;53.176;8.194;2023-08-20T10:46:14;9.35;;;3.20;;
18443;SDS011;9350;53.176;8.194;2023-08-20T10:48:42;13.52;;;3.10;;
18443;SDS011;9350;53.176;8.194;2023-08-20T10:51:14;6.35;;;2.72;;
18443;SDS011;9350;53.176;8.194;2023-08-20T10:53:42;8.45;;;3.20;;
18443;SDS011;9350;53.176;8.194;2023-08-20T10:56:10;7.05;;;2.80;;
18443;SDS011;9350;53.176;8.194;2023-08-20T10:58:38;7.28;;;3.13;;
18443;SDS011;9350;53.176;8.194;2023-08-20T11:01:17;10.50;;;3.05;;
18443;SDS011;9350;53.176;8.194;2023-08-20T11:03:46;6.97;;;2.80;;
18443;SDS011;9350;53.176;8.194;2023-08-20T11:06:16;8.07;;;2.60;;
18443;SDS011;9350;53.176;8.194;2023-08-20T11:08:43;10.32;;;3.40;;
18443;SDS011;9350;53.176;8.194;2023-08-20T11:11:10;12.55;;;3.15;;
18443;SDS011;9350;53.176;8.194;2023-08-20T11:13:38;5.95;;;2.67;;
18443;SDS011;9350;53.176;8.194;2023-08-20T11:16:05;7.32;;;2.63;;
18443;SDS011;9350;53.176;8.194;2023-08-20T11:18:33;6.68;;;2.78;;
18443;SDS011;9350;53.176;8.194;2023-08-20T11:21:00;7.78;;;2.80;;
18443;SDS011;9350;53.176;8.194;2023-08-20T11:23:29;9.55;;;2.78;;
18443;SDS011;9350;53.176;8.194;2023-08-20T11:25:56;4.20;;;2.55;;
18443;SDS011;9350;53.176;8.194;2023-08-20T11:28:24;4.53;;;2.60;;
18443;SDS011;9350;53.176;8.194;2023-08-20T11:30:51;3.75;;;2.30;;
18443;SDS011;9350;53.176;8.194;2023-08-20T11:33:19;3.92;;;2.08;;
18443;SDS011;9350;53.176;8.194;2023-08-20T11:35:47;9.45;;;2.45;;
18443;SDS011;9350;53.176;8.194;2023-08-20T11:38:14;4.82;;;2.35;;
18443;SDS011;9350;53.176;8.194;2023-08-20T11:40:42;5.65;;;2.67;;
18443;SDS011;9350;53.176;8.194;2023-08-20T11:43:09;9.00;;;2.95;;
18443;SDS011;9350;53.176;8.194;2023-08-20T11:45:43;8.73;;;2.90;;
18443;SDS011;9350;53.176;8.194;2023-08-20T11:48:10;11.40;;;2.78;;
18443;SDS011;9350;53.176;8.194;2023-08-20T11:50:37;10.00;;;2.38;;
18443;SDS011;9350;53.176;8.194;2023-08-20T11:53:05;3.53;;;1.95;;
18443;SDS011;9350;53.176;8.194;2023-08-20T11:55:34;8.10;;;2.42;;
18443;SDS011;9350;53.176;8.194;2023-08-20T11:58:02;4.97;;;2.05;;
18443;SDS011;9350;53.176;8.194;2023-08-20T12:00:30;8.50;;;2.75;;
18443;SDS011;9350;53.176;8.194;2023-08-20T12:02:58;5.20;;;2.20;;
18443;SDS011;9350;53.176;8.194;2023-08-20T12:05:26;5.95;;;2.25;;
18443;SDS011;9350;53.176;8.194;2023-08-20T12:07:56;5.78;;;2.22;;
18443;SDS011;9350;53.176;8.194;2023-08-20T12:10:24;4.13;;;1.90;;
18443;SDS011;9350;53.176;8.194;2023-08-20T12:12:51;4.03;;;1.92;;
18443;SDS011;9350;53.176;8.194;2023-08-20T12:15:20;5.32;;;1.92;;
18443;SDS011;9350;53.176;8.194;2023-08-20T12:17:57;3.55;;;1.70;;
18443;SDS011;9350;53.176;8.194;2023-08-20T12:20:26;4.20;;;1.45;;
18443;SDS011;9350;53.176;8.194;2023-08-20T12:22:54;2.25;;;1.20;;
18443;SDS011;9350;53.176;8.194;2023-08-20T12:25:21;1.73;;;1.35;;
18443;SDS011;9350;53.176;8.194;2023-08-20T12:27:47;3.08;;;1.40;;
18443;SDS011;9350;53.176;8.194;2023-08-20T12:30:14;5.15;;;1.88;;
18443;SDS011;9350;53.176;8.194;2023-08-20T12:32:42;3.88;;;1.70;;
18443;SDS011;9350;53.176;8.194;2023-08-20T12:35:09;8.10;;;1.35;;
18443;SDS011;9350;53.176;8.194;2023-08-20T12:37:36;3.42;;;1.60;;
18443;SDS011;9350;53.176;8.194;2023-08-20T12:40:03;2.45;;;1.30;;
18443;SDS011;9350;53.176;8.194;2023-08-20T12:42:35;8.20;;;1.70;;
18443;SDS011;9350;53.176;8.194;2023-08-20T12:45:02;5.15;;;1.13;;
18443;SDS011;9350;53.176;8.194;2023-08-20T12:47:30;3.25;;;1.10;;
18443;SDS011;9350;53.176;8.194;2023-08-20T12:49:58;1.75;;;1.17;;
18443;SDS011;9350;53.176;8.194;2023-08-20T12:52:24;3.40;;;1.60;;
18443;SDS011;9350;53.176;8.194;2023-08-20T12:54:51;2.47;;;1.15;;
18443;SDS011;9350;53.176;8.194;2023-08-20T12:57:18;6.75;;;1.20;;
18443;SDS011;9350;53.176;8.194;2023-08-20T12:59:44;3.72;;;1.20;;
18443;SDS011;9350;53.176;8.194;2023-08-20T13:02:11;3.03;;;1.10;;
18443;SDS011;9350;53.176;8.194;2023-08-20T13:04:38;2.33;;;0.98;;
18443;SDS011;9350;53.176;8.194;2023-08-20T13:07:07;6.68;;;1.20;;
18443;SDS011;9350;53.176;8.194;2023-08-20T13:09:34;2.45;;;1.08;;
18443;SDS011;9350;53.176;8.194;2023-08-20T13:12:02;1.77;;;1.00;;
18443;SDS011;9350;53.176;8.194;2023-08-20T13:14:30;2.17;;;1.00;;
18443;SDS011;9350;53.176;8.194;2023-08-20T13:16:58;2.42;;;1.08;;
18443;SDS011;9350;53.176;8.194;2023-08-20T13:19:25;4.45;;;0.90;;
18443;SDS011;9350;53.176;8.194;2023-08-20T13:21:52;1.50;;;0.93;;
18443;SDS011;9350;53.176;8.194;2023-08-20T13:24:20;2.97;;;1.23;;
18443;SDS011;9350;53.176;8.194;2023-08-20T13:26:47;1.25;;;0.90;;
18443;SDS011;9350;53.176;8.194;2023-08-20T13:29:13;1.52;;;0.80;;
18443;SDS011;9350;53.176;8.194;2023-08-20T13:31:40;3.05;;;1.17;;
18443;SDS011;9350;53.176;8.194;2023-08-20T13:34:07;8.00;;;3.72;;
18443;SDS011;9350;53.176;8.194;2023-08-20T13:36:33;32.88;;;15.10;;
18443;SDS011;9350;53.176;8.194;2023-08-20T13:39:00;103.50;;;39.13;;
18443;SDS011;9350;53.176;8.194;2023-08-20T13:41:29;2.53;;;1.70;;
18443;SDS011;9350;53.176;8.194;2023-08-20T13:43:55;3.63;;;1.13;;
18443;SDS011;9350;53.176;8.194;2023-08-20T13:46:22;2.33;;;1.30;;
18443;SDS011;9350;53.176;8.194;2023-08-20T13:48:49;0.70;;;0.70;;
18443;SDS011;9350;53.176;8.194;2023-08-20T13:51:15;2.63;;;0.90;;
18443;SDS011;9350;53.176;8.194;2023-08-20T13:53:42;2.72;;;0.68;;
18443;SDS011;9350;53.176;8.194;2023-08-20T13:56:09;2.47;;;0.80;;
18443;SDS011;9350;53.176;8.194;2023-08-20T13:58:37;3.05;;;0.82;;
18443;SDS011;9350;53.176;8.194;2023-08-20T14:01:03;1.58;;;0.60;;
18443;SDS011;9350;53.176;8.194;2023-08-20T14:03:31;2.55;;;0.80;;
18443;SDS011;9350;53.176;8.194;2023-08-20T14:05:57;2.40;;;0.70;;
18443;SDS011;9350;53.176;8.194;2023-08-20T14:08:24;4.97;;;0.90;;
18443;SDS011;9350;53.176;8.194;2023-08-20T14:10:51;1.00;;;0.90;;
18443;SDS011;9350;53.176;8.194;2023-08-20T14:13:17;1.05;;;0.60;;
18443;SDS011;9350;53.176;8.194;2023-08-20T14:15:45;2.28;;;0.70;;
18443;SDS011;9350;53.176;8.194;2023-08-20T14:18:12;2.88;;;0.82;;
18443;SDS011;9350;53.176;8.194;2023-08-20T14:20:39;0.73;;;0.60;;
18443;SDS011;9350;53.176;8.194;2023-08-20T14:23:05;1.25;;;0.70;;
18443;SDS011;9350;53.176;8.194;2023-08-20T14:25:32;3.05;;;1.08;;
18443;SDS011;9350;53.176;8.194;2023-08-20T14:27:59;1.85;;;0.80;;
18443;SDS011;9350;53.176;8.194;2023-08-20T14:30:26;1.00;;;0.82;;
18443;SDS011;9350;53.176;8.194;2023-08-20T14:32:54;0.82;;;0.80;;
18443;SDS011;9350;53.176;8.194;2023-08-20T14:35:20;1.70;;;0.98;;
18443;SDS011;9350;53.176;8.194;2023-08-20T14:37:47;1.00;;;0.70;;
18443;SDS011;9350;53.176;8.194;2023-08-20T14:40:14;1.88;;;0.80;;
18443;SDS011;9350;53.176;8.194;2023-08-20T14:42:41;3.40;;;0.98;;
18443;SDS011;9350;53.176;8.194;2023-08-20T14:45:08;1.25;;;0.80;;
18443;SDS011;9350;53.176;8.194;2023-08-20T14:47:35;3.30;;;0.80;;
18443;SDS011;9350;53.176;8.194;2023-08-20T14:50:03;0.73;;;0.73;;
18443;SDS011;9350;53.176;8.194;2023-08-20T14:52:31;1.40;;;0.85;;
18443;SDS011;9350;53.176;8.194;2023-08-20T14:54:57;1.30;;;0.70;;
18443;SDS011;9350;53.176;8.194;2023-08-20T14:57:24;1.88;;;0.88;;
18443;SDS011;9350;53.176;8.194;2023-08-20T14:59:51;1.60;;;1.42;;